Bookmark and Share
Track history (hours):
 

Favola

Last reported at 2014-Apr-18 12:32 UTC. Time now 2014-Apr-18 16:20 UTC.
Position N 37°05' E 013°41'.

Length 180 m; draft 9.4 m.

Type: Ship (hazmat cat C). MMSI: 247069800.

NotesDate/timePositionNaut miles runAvg speedWind from/ knotsBaromVisibWave heightAir tempDewpointWater temp
2014-Apr-18 12:32N 37°05' E 013°41'1010.3
2014-Apr-18 11:33N 37°01' E 013°52'1010.0
2014-Apr-18 10:33N 36°57' E 014°03'1010.1
2014-Apr-18 09:33N 36°52' E 014°14'1010.3
2014-Apr-18 08:33N 36°45' E 014°24'10 9.6
2014-Apr-18 07:33N 36°40' E 014°34'48610.8
2014-Apr-16 10:33N 35°34' E 024°31'2811.5
2014-Apr-16 08:09N 35°32' E 025°04'711.5
2014-Apr-16 07:33N 35°32' E 025°13'1111.3
2014-Apr-16 06:33N 35°31' E 025°27'1111.2
2014-Apr-16 05:32N 35°29' E 025°40'1411.2
2014-Apr-16 04:20N 35°27' E 025°57'1011.3
2014-Apr-16 03:29N 35°25' E 026°08'1111.4
2014-Apr-16 02:32N 35°24' E 026°21'3511.6
2014-Apr-15 23:33N 35°16' E 027°03'26511.0
2014-Apr-14 23:32N 34°35' E 032°22'1111.5
2014-Apr-14 22:33N 34°33' E 032°36'1211.8
2014-Apr-14 21:34N 34°31' E 032°50'1211.8
2014-Apr-14 20:34N 34°29' E 033°04'1110.8
2014-Apr-14 19:34N 34°27' E 033°17'1 1.1
2014-Apr-14 18:34N 34°27' E 033°18'1 0.6
2014-Apr-14 17:33N 34°28' E 033°19'2 1.7
2014-Apr-14 16:34N 34°28' E 033°21'1 0.7
2014-Apr-14 15:34N 34°28' E 033°21'1 0.7
2014-Apr-14 14:34N 34°28' E 033°20'1 0.5
2014-Apr-14 13:34N 34°28' E 033°19'0 0.2
2014-Apr-14 11:34N 34°28' E 033°19'0 0.1
2014-Apr-14 10:32N 34°28' E 033°18'0 0.1
2014-Apr-14 09:33N 34°28' E 033°18'0 0.1
2014-Apr-14 08:33N 34°27' E 033°18'0 0.1
2014-Apr-14 07:33N 34°27' E 033°18'0 0.1
2014-Apr-14 06:33N 34°27' E 033°18'0 0.1
2014-Apr-14 05:33N 34°27' E 033°18'2 0.3
2014-Apr-13 22:33N 34°27' E 033°21'5 5.3
2014-Apr-13 21:33N 34°31' E 033°26'6 5.2
2014-Apr-13 20:29N 34°34' E 033°31'1 0.8
2014-Apr-13 19:21N 34°34' E 033°32'4 5.0
2014-Apr-13 18:33N 34°32' E 033°28'5 5.3
2014-Apr-13 17:33N 34°30' E 033°22'2 1.7
2014-Apr-13 16:33N 34°28' E 033°21'2 2.1
2014-Apr-13 15:33N 34°29' E 033°19'1 0.9
2014-Apr-13 14:33N 34°29' E 033°20'1 0.9
2014-Apr-13 13:33N 34°29' E 033°21'8 8.0
2014-Apr-13 12:33N 34°33' E 033°29'10 8.0
2014-Apr-13 11:20N 34°36' E 033°40'4 1.3
2014-Apr-13 08:18N 34°37' E 033°45'1 0.4
2014-Apr-13 05:28N 34°38' E 033°44'1 0.5
2014-Apr-13 03:10N 34°38' E 033°45'0 0.3
2014-Apr-13 02:14N 34°38' E 033°46'1 0.5
2014-Apr-13 00:33N 34°37' E 033°45'1 0.6
2014-Apr-12 23:30N 34°37' E 033°45'1 0.7
2014-Apr-12 22:12N 34°36' E 033°44'1 0.7
2014-Apr-12 21:30N 34°36' E 033°43'1 0.7
2014-Apr-12 20:11N 34°36' E 033°42'1 0.8
2014-Apr-12 19:21N 34°36' E 033°42'1 0.9
2014-Apr-12 18:31N 34°37' E 033°41'1 1.3
2014-Apr-12 17:33N 34°36' E 033°39'2 1.6
2014-Apr-12 16:33N 34°36' E 033°37'2 1.6
2014-Apr-12 15:33N 34°36' E 033°35'2 1.7
2014-Apr-12 14:33N 34°35' E 033°34'2 1.5
2014-Apr-12 13:33N 34°34' E 033°32'1 1.3
2014-Apr-12 12:33N 34°34' E 033°30'1 1.3
2014-Apr-12 11:33N 34°33' E 033°29'1 1.2
2014-Apr-12 10:33N 34°33' E 033°28'1 1.1
2014-Apr-12 09:33N 34°32' E 033°27'1 0.9
2014-Apr-12 08:33N 34°31' E 033°26'1 0.6
2014-Apr-12 07:33N 34°31' E 033°25'0 0.4
2014-Apr-12 06:33N 34°31' E 033°25'0 0.3
2014-Apr-12 05:33N 34°31' E 033°25'0 0.2
2014-Apr-12 04:30N 34°31' E 033°24'0 0.1
2014-Apr-12 03:33N 34°31' E 033°24'0 0.0
2014-Apr-12 02:33N 34°31' E 033°24'0 0.1
2014-Apr-12 01:33N 34°31' E 033°24'0 0.2
2014-Apr-12 00:33N 34°31' E 033°24'0 0.3
2014-Apr-11 23:33N 34°31' E 033°24'0 0.4
2014-Apr-11 22:33N 34°32' E 033°24'1 0.5
2014-Apr-11 21:29N 34°32' E 033°24'1 0.6
2014-Apr-11 20:33N 34°33' E 033°23'1 0.7
2014-Apr-11 19:33N 34°33' E 033°23'1 0.7
2014-Apr-11 18:33N 34°33' E 033°22'1 0.8
2014-Apr-11 17:33N 34°34' E 033°21'1 0.9
2014-Apr-11 16:33N 34°34' E 033°20'1 0.7
2014-Apr-11 15:33N 34°34' E 033°19'5 5.1
2014-Apr-11 14:33N 34°36' E 033°14'8 8.0
2014-Apr-11 13:33N 34°40' E 033°05'0 0.0
2014-Apr-11 12:33N 34°40' E 033°05'0 0.0
2014-Apr-11 11:33N 34°40' E 033°05'0 0.0
2014-Apr-11 10:33N 34°40' E 033°05'1 1.3
2014-Apr-11 09:33N 34°39' E 033°06'10 9.6
2014-Apr-11 08:33N 34°32' E 033°13'1 0.7
2014-Apr-11 07:33N 34°31' E 033°13'6 6.3
2014-Apr-11 06:33N 34°30' E 033°06'1313.0
2014-Apr-11 05:33N 34°32' E 032°50'1414.2
2014-Apr-11 04:33N 34°34' E 032°33'1514.1
2014-Apr-11 03:32N 34°36' E 032°16'33313.9
2014-Apr-10 03:33N 35°32' E 025°34'  

Dump ship's entire track history

sailing weather and tide predictions

Favola — IBFH — position and weather